sensor_id;sensor_type;location;lat;lon;timestamp;P1;durP1;ratioP1;P2;durP2;ratioP2
6531;SDS011;3299;42.004;24.868;2023-02-28T00:00:11;18.25;;;4.88;;
6531;SDS011;3299;42.004;24.868;2023-02-28T00:02:39;18.35;;;5.05;;
6531;SDS011;3299;42.004;24.868;2023-02-28T00:05:06;18.40;;;4.90;;
6531;SDS011;3299;42.004;24.868;2023-02-28T00:07:32;15.07;;;5.50;;
6531;SDS011;3299;42.004;24.868;2023-02-28T00:09:58;14.50;;;4.68;;
6531;SDS011;3299;42.004;24.868;2023-02-28T00:12:24;14.55;;;4.97;;
6531;SDS011;3299;42.004;24.868;2023-02-28T00:14:50;22.77;;;4.72;;
6531;SDS011;3299;42.004;24.868;2023-02-28T00:17:15;21.42;;;4.95;;
6531;SDS011;3299;42.004;24.868;2023-02-28T00:19:43;14.63;;;4.47;;
6531;SDS011;3299;42.004;24.868;2023-02-28T00:22:08;13.35;;;4.88;;
6531;SDS011;3299;42.004;24.868;2023-02-28T00:24:34;15.57;;;4.93;;
6531;SDS011;3299;42.004;24.868;2023-02-28T00:26:59;13.65;;;4.80;;
6531;SDS011;3299;42.004;24.868;2023-02-28T00:29:25;15.90;;;5.80;;
6531;SDS011;3299;42.004;24.868;2023-02-28T00:31:50;20.05;;;5.28;;
6531;SDS011;3299;42.004;24.868;2023-02-28T00:34:15;19.05;;;5.22;;
6531;SDS011;3299;42.004;24.868;2023-02-28T00:36:41;18.00;;;5.07;;
6531;SDS011;3299;42.004;24.868;2023-02-28T00:39:10;20.58;;;5.07;;
6531;SDS011;3299;42.004;24.868;2023-02-28T00:41:35;13.32;;;4.97;;
6531;SDS011;3299;42.004;24.868;2023-02-28T00:44:01;21.15;;;4.80;;
6531;SDS011;3299;42.004;24.868;2023-02-28T00:46:26;20.58;;;4.80;;
6531;SDS011;3299;42.004;24.868;2023-02-28T00:48:52;15.98;;;4.78;;
6531;SDS011;3299;42.004;24.868;2023-02-28T00:51:17;13.07;;;4.38;;
6531;SDS011;3299;42.004;24.868;2023-02-28T00:53:42;22.30;;;4.68;;
6531;SDS011;3299;42.004;24.868;2023-02-28T00:56:08;16.30;;;4.22;;
6531;SDS011;3299;42.004;24.868;2023-02-28T00:58:33;16.13;;;4.68;;
6531;SDS011;3299;42.004;24.868;2023-02-28T01:00:58;19.45;;;4.78;;
6531;SDS011;3299;42.004;24.868;2023-02-28T01:03:24;21.10;;;4.50;;
6531;SDS011;3299;42.004;24.868;2023-02-28T01:05:50;23.60;;;5.95;;
6531;SDS011;3299;42.004;24.868;2023-02-28T01:08:18;14.27;;;4.50;;
6531;SDS011;3299;42.004;24.868;2023-02-28T01:10:43;17.00;;;5.38;;
6531;SDS011;3299;42.004;24.868;2023-02-28T01:13:09;17.95;;;4.65;;
6531;SDS011;3299;42.004;24.868;2023-02-28T01:15:35;18.17;;;5.72;;
6531;SDS011;3299;42.004;24.868;2023-02-28T01:18:03;17.25;;;4.47;;
6531;SDS011;3299;42.004;24.868;2023-02-28T01:20:28;20.42;;;4.85;;
6531;SDS011;3299;42.004;24.868;2023-02-28T01:22:54;16.30;;;5.30;;
6531;SDS011;3299;42.004;24.868;2023-02-28T01:25:19;21.75;;;4.82;;
6531;SDS011;3299;42.004;24.868;2023-02-28T01:27:45;23.33;;;4.95;;
6531;SDS011;3299;42.004;24.868;2023-02-28T01:30:10;21.77;;;6.07;;
6531;SDS011;3299;42.004;24.868;2023-02-28T01:32:36;20.20;;;5.80;;
6531;SDS011;3299;42.004;24.868;2023-02-28T01:35:01;15.75;;;5.40;;
6531;SDS011;3299;42.004;24.868;2023-02-28T01:37:27;24.13;;;6.65;;
6531;SDS011;3299;42.004;24.868;2023-02-28T01:39:53;12.82;;;5.38;;
6531;SDS011;3299;42.004;24.868;2023-02-28T01:42:18;18.50;;;5.35;;
6531;SDS011;3299;42.004;24.868;2023-02-28T01:47:43;15.35;;;5.32;;
6531;SDS011;3299;42.004;24.868;2023-02-28T01:50:12;17.42;;;5.78;;
6531;SDS011;3299;42.004;24.868;2023-02-28T01:52:41;20.27;;;5.00;;
6531;SDS011;3299;42.004;24.868;2023-02-28T01:55:08;14.52;;;5.68;;
6531;SDS011;3299;42.004;24.868;2023-02-28T01:57:40;19.70;;;5.47;;
6531;SDS011;3299;42.004;24.868;2023-02-28T02:00:11;17.52;;;4.15;;
6531;SDS011;3299;42.004;24.868;2023-02-28T02:02:41;17.08;;;5.22;;
6531;SDS011;3299;42.004;24.868;2023-02-28T02:05:10;18.90;;;4.95;;
6531;SDS011;3299;42.004;24.868;2023-02-28T02:07:39;19.25;;;4.53;;
6531;SDS011;3299;42.004;24.868;2023-02-28T02:15:29;14.18;;;4.25;;
6531;SDS011;3299;42.004;24.868;2023-02-28T02:18:13;18.67;;;4.22;;
6531;SDS011;3299;42.004;24.868;2023-02-28T02:20:53;18.88;;;5.15;;
6531;SDS011;3299;42.004;24.868;2023-02-28T02:29:30;18.83;;;4.95;;
6531;SDS011;3299;42.004;24.868;2023-02-28T02:37:20;16.58;;;4.97;;
6531;SDS011;3299;42.004;24.868;2023-02-28T02:45:28;16.63;;;4.47;;
6531;SDS011;3299;42.004;24.868;2023-02-28T02:48:01;18.98;;;4.80;;
6531;SDS011;3299;42.004;24.868;2023-02-28T02:50:30;17.05;;;5.30;;
6531;SDS011;3299;42.004;24.868;2023-02-28T02:53:00;23.00;;;5.90;;
6531;SDS011;3299;42.004;24.868;2023-02-28T02:55:28;18.33;;;4.93;;
6531;SDS011;3299;42.004;24.868;2023-02-28T02:58:00;16.48;;;4.53;;
6531;SDS011;3299;42.004;24.868;2023-02-28T03:00:48;20.02;;;5.32;;
6531;SDS011;3299;42.004;24.868;2023-02-28T03:03:18;16.88;;;5.25;;
6531;SDS011;3299;42.004;24.868;2023-02-28T03:05:53;14.45;;;6.38;;
6531;SDS011;3299;42.004;24.868;2023-02-28T03:08:21;18.73;;;5.78;;
6531;SDS011;3299;42.004;24.868;2023-02-28T03:10:48;12.93;;;5.30;;
6531;SDS011;3299;42.004;24.868;2023-02-28T03:16:27;27.45;;;5.43;;
6531;SDS011;3299;42.004;24.868;2023-02-28T03:19:22;11.80;;;4.53;;
6531;SDS011;3299;42.004;24.868;2023-02-28T03:22:14;15.23;;;5.63;;
6531;SDS011;3299;42.004;24.868;2023-02-28T03:25:08;16.83;;;4.95;;
6531;SDS011;3299;42.004;24.868;2023-02-28T03:27:44;22.73;;;6.07;;
6531;SDS011;3299;42.004;24.868;2023-02-28T03:33:24;15.88;;;5.07;;
6531;SDS011;3299;42.004;24.868;2023-02-28T03:38:44;14.77;;;6.85;;
6531;SDS011;3299;42.004;24.868;2023-02-28T03:43:54;15.27;;;8.02;;
6531;SDS011;3299;42.004;24.868;2023-02-28T03:46:23;12.73;;;8.10;;
6531;SDS011;3299;42.004;24.868;2023-02-28T03:48:57;12.57;;;8.23;;
6531;SDS011;3299;42.004;24.868;2023-02-28T03:51:44;15.50;;;8.68;;
6531;SDS011;3299;42.004;24.868;2023-02-28T03:54:15;15.30;;;9.48;;
6531;SDS011;3299;42.004;24.868;2023-02-28T03:56:51;14.13;;;8.82;;
6531;SDS011;3299;42.004;24.868;2023-02-28T03:59:33;16.10;;;9.05;;
6531;SDS011;3299;42.004;24.868;2023-02-28T04:02:03;18.02;;;9.82;;
6531;SDS011;3299;42.004;24.868;2023-02-28T04:04:29;18.65;;;10.75;;
6531;SDS011;3299;42.004;24.868;2023-02-28T04:07:00;13.13;;;10.10;;
6531;SDS011;3299;42.004;24.868;2023-02-28T04:09:28;17.55;;;10.70;;
6531;SDS011;3299;42.004;24.868;2023-02-28T04:11:53;17.88;;;10.85;;
6531;SDS011;3299;42.004;24.868;2023-02-28T04:14:20;18.00;;;9.90;;
6531;SDS011;3299;42.004;24.868;2023-02-28T04:16:46;13.77;;;9.15;;
6531;SDS011;3299;42.004;24.868;2023-02-28T04:19:12;15.60;;;9.70;;
6531;SDS011;3299;42.004;24.868;2023-02-28T04:21:40;13.90;;;9.82;;
6531;SDS011;3299;42.004;24.868;2023-02-28T04:24:11;20.25;;;10.27;;
6531;SDS011;3299;42.004;24.868;2023-02-28T04:26:44;17.55;;;10.10;;
6531;SDS011;3299;42.004;24.868;2023-02-28T04:29:12;16.33;;;9.80;;
6531;SDS011;3299;42.004;24.868;2023-02-28T04:31:39;15.38;;;9.90;;
6531;SDS011;3299;42.004;24.868;2023-02-28T04:34:05;17.23;;;9.88;;
6531;SDS011;3299;42.004;24.868;2023-02-28T04:36:31;20.02;;;11.10;;
6531;SDS011;3299;42.004;24.868;2023-02-28T04:38:56;16.35;;;10.18;;
6531;SDS011;3299;42.004;24.868;2023-02-28T04:41:22;19.63;;;10.55;;
6531;SDS011;3299;42.004;24.868;2023-02-28T04:43:48;16.02;;;10.20;;
6531;SDS011;3299;42.004;24.868;2023-02-28T04:46:14;18.00;;;11.23;;
6531;SDS011;3299;42.004;24.868;2023-02-28T04:48:40;14.68;;;9.45;;
6531;SDS011;3299;42.004;24.868;2023-02-28T04:51:07;16.88;;;9.93;;
6531;SDS011;3299;42.004;24.868;2023-02-28T04:53:34;12.80;;;9.38;;
6531;SDS011;3299;42.004;24.868;2023-02-28T04:56:01;13.48;;;9.57;;
6531;SDS011;3299;42.004;24.868;2023-02-28T04:58:27;17.38;;;10.15;;
6531;SDS011;3299;42.004;24.868;2023-02-28T05:00:53;13.38;;;9.15;;
6531;SDS011;3299;42.004;24.868;2023-02-28T05:03:19;12.27;;;9.07;;
6531;SDS011;3299;42.004;24.868;2023-02-28T05:05:47;14.05;;;9.05;;
6531;SDS011;3299;42.004;24.868;2023-02-28T05:08:12;14.07;;;9.15;;
6531;SDS011;3299;42.004;24.868;2023-02-28T05:10:41;16.08;;;9.38;;
6531;SDS011;3299;42.004;24.868;2023-02-28T05:13:06;16.02;;;9.18;;
6531;SDS011;3299;42.004;24.868;2023-02-28T05:15:31;15.10;;;9.52;;
6531;SDS011;3299;42.004;24.868;2023-02-28T05:17:57;16.83;;;9.00;;
6531;SDS011;3299;42.004;24.868;2023-02-28T05:20:22;11.70;;;8.60;;
6531;SDS011;3299;42.004;24.868;2023-02-28T05:22:49;13.18;;;8.43;;
6531;SDS011;3299;42.004;24.868;2023-02-28T05:25:18;14.80;;;9.75;;
6531;SDS011;3299;42.004;24.868;2023-02-28T05:27:45;14.25;;;9.52;;
6531;SDS011;3299;42.004;24.868;2023-02-28T05:30:10;18.20;;;9.85;;
6531;SDS011;3299;42.004;24.868;2023-02-28T05:32:39;16.20;;;10.02;;
6531;SDS011;3299;42.004;24.868;2023-02-28T05:35:08;18.23;;;9.52;;
6531;SDS011;3299;42.004;24.868;2023-02-28T05:37:37;20.75;;;9.32;;
6531;SDS011;3299;42.004;24.868;2023-02-28T05:40:06;15.85;;;9.05;;
6531;SDS011;3299;42.004;24.868;2023-02-28T05:42:35;12.95;;;9.05;;
6531;SDS011;3299;42.004;24.868;2023-02-28T05:45:01;11.90;;;9.40;;
6531;SDS011;3299;42.004;24.868;2023-02-28T05:47:26;12.57;;;9.35;;
6531;SDS011;3299;42.004;24.868;2023-02-28T05:49:51;17.67;;;9.68;;
6531;SDS011;3299;42.004;24.868;2023-02-28T05:52:17;15.07;;;9.35;;
6531;SDS011;3299;42.004;24.868;2023-02-28T05:54:42;16.65;;;9.60;;
6531;SDS011;3299;42.004;24.868;2023-02-28T05:57:07;17.92;;;9.60;;
6531;SDS011;3299;42.004;24.868;2023-02-28T05:59:33;21.55;;;9.60;;
6531;SDS011;3299;42.004;24.868;2023-02-28T06:01:58;17.70;;;9.35;;
6531;SDS011;3299;42.004;24.868;2023-02-28T06:04:24;16.38;;;9.52;;
6531;SDS011;3299;42.004;24.868;2023-02-28T06:06:49;14.15;;;9.95;;
6531;SDS011;3299;42.004;24.868;2023-02-28T06:09:15;15.75;;;9.05;;
6531;SDS011;3299;42.004;24.868;2023-02-28T06:11:42;16.33;;;9.15;;
6531;SDS011;3299;42.004;24.868;2023-02-28T06:14:09;13.05;;;8.52;;
6531;SDS011;3299;42.004;24.868;2023-02-28T06:16:39;25.52;;;9.32;;
6531;SDS011;3299;42.004;24.868;2023-02-28T06:19:04;16.25;;;10.85;;
6531;SDS011;3299;42.004;24.868;2023-02-28T06:21:30;13.57;;;9.73;;
6531;SDS011;3299;42.004;24.868;2023-02-28T06:23:56;18.15;;;11.32;;
6531;SDS011;3299;42.004;24.868;2023-02-28T06:26:23;21.00;;;11.68;;
6531;SDS011;3299;42.004;24.868;2023-02-28T06:28:49;22.45;;;12.43;;
6531;SDS011;3299;42.004;24.868;2023-02-28T06:31:15;21.90;;;11.18;;
6531;SDS011;3299;42.004;24.868;2023-02-28T06:33:43;23.70;;;11.75;;
6531;SDS011;3299;42.004;24.868;2023-02-28T06:36:10;20.08;;;13.73;;
6531;SDS011;3299;42.004;24.868;2023-02-28T06:38:37;19.83;;;13.20;;
6531;SDS011;3299;42.004;24.868;2023-02-28T06:41:04;22.30;;;13.25;;
6531;SDS011;3299;42.004;24.868;2023-02-28T06:43:31;22.65;;;13.52;;
6531;SDS011;3299;42.004;24.868;2023-02-28T06:46:00;25.05;;;13.13;;
6531;SDS011;3299;42.004;24.868;2023-02-28T06:48:27;19.80;;;13.27;;
6531;SDS011;3299;42.004;24.868;2023-02-28T06:51:03;22.77;;;13.45;;
6531;SDS011;3299;42.004;24.868;2023-02-28T06:53:28;24.77;;;13.68;;
6531;SDS011;3299;42.004;24.868;2023-02-28T06:55:54;25.17;;;13.88;;
6531;SDS011;3299;42.004;24.868;2023-02-28T06:58:19;23.95;;;14.35;;
6531;SDS011;3299;42.004;24.868;2023-02-28T07:00:45;23.90;;;14.02;;
6531;SDS011;3299;42.004;24.868;2023-02-28T07:03:11;25.98;;;14.40;;
6531;SDS011;3299;42.004;24.868;2023-02-28T07:05:40;25.25;;;14.80;;
6531;SDS011;3299;42.004;24.868;2023-02-28T07:08:05;23.98;;;14.57;;
6531;SDS011;3299;42.004;24.868;2023-02-28T07:10:31;27.10;;;14.60;;
6531;SDS011;3299;42.004;24.868;2023-02-28T07:12:58;35.95;;;18.83;;
6531;SDS011;3299;42.004;24.868;2023-02-28T07:15:24;26.50;;;15.23;;
6531;SDS011;3299;42.004;24.868;2023-02-28T07:17:49;29.73;;;16.13;;
6531;SDS011;3299;42.004;24.868;2023-02-28T07:20:15;31.17;;;18.08;;
6531;SDS011;3299;42.004;24.868;2023-02-28T07:22:41;22.70;;;14.00;;
6531;SDS011;3299;42.004;24.868;2023-02-28T07:25:06;34.65;;;17.17;;
6531;SDS011;3299;42.004;24.868;2023-02-28T07:27:32;33.47;;;15.63;;
6531;SDS011;3299;42.004;24.868;2023-02-28T07:29:59;29.02;;;14.98;;
6531;SDS011;3299;42.004;24.868;2023-02-28T07:32:26;35.75;;;15.93;;
6531;SDS011;3299;42.004;24.868;2023-02-28T07:34:52;24.80;;;13.88;;
6531;SDS011;3299;42.004;24.868;2023-02-28T07:37:18;25.73;;;15.02;;
6531;SDS011;3299;42.004;24.868;2023-02-28T07:39:43;24.10;;;13.75;;
6531;SDS011;3299;42.004;24.868;2023-02-28T07:42:09;19.02;;;12.68;;
6531;SDS011;3299;42.004;24.868;2023-02-28T07:44:36;26.38;;;14.27;;
6531;SDS011;3299;42.004;24.868;2023-02-28T07:47:06;26.83;;;13.27;;
6531;SDS011;3299;42.004;24.868;2023-02-28T07:49:33;25.45;;;14.05;;
6531;SDS011;3299;42.004;24.868;2023-02-28T07:51:59;26.02;;;13.35;;
6531;SDS011;3299;42.004;24.868;2023-02-28T07:54:24;18.88;;;12.68;;
6531;SDS011;3299;42.004;24.868;2023-02-28T07:56:50;23.40;;;12.48;;
6531;SDS011;3299;42.004;24.868;2023-02-28T07:59:15;29.65;;;14.07;;
